createdAt,value
2022-07-25T00:01:06.965Z,1.50
2022-07-25T00:06:18.011Z,1.60
2022-07-25T00:11:43.419Z,2.00
2022-07-25T00:17:02.060Z,1.42
2022-07-25T00:22:21.919Z,1.55
2022-07-25T00:27:37.455Z,1.80
2022-07-25T00:32:52.943Z,1.83
2022-07-25T00:38:16.325Z,1.60
2022-07-25T00:43:34.709Z,2.05
2022-07-25T00:48:44.475Z,1.90
2022-07-25T00:54:10.497Z,2.10
2022-07-25T00:59:23.506Z,2.15
2022-07-25T01:05:01.608Z,2.28
2022-07-25T01:10:11.661Z,2.53
2022-07-25T01:15:21.616Z,2.17
2022-07-25T01:20:29.409Z,2.05
2022-07-25T01:25:43.045Z,2.17
2022-07-25T01:30:57.246Z,2.05
2022-07-25T01:41:39.616Z,2.28
2022-07-25T01:46:50.700Z,2.53
2022-07-25T01:52:18.476Z,2.10
2022-07-25T01:57:55.745Z,2.45
2022-07-25T02:03:46.158Z,2.40
2022-07-25T02:08:53.069Z,2.50
2022-07-25T02:13:58.362Z,3.03
2022-07-25T02:19:07.507Z,2.95
2022-07-25T02:24:13.454Z,3.20
2022-07-25T02:29:21.891Z,3.17
2022-07-25T02:34:33.702Z,3.22
2022-07-25T02:39:45.758Z,3.40
2022-07-25T02:44:50.530Z,3.17
2022-07-25T02:50:03.011Z,2.97
2022-07-25T02:55:14.804Z,2.95
2022-07-25T03:00:24.482Z,2.85
2022-07-25T03:05:44.599Z,3.10
2022-07-25T03:10:56.607Z,2.72
2022-07-25T03:16:07.031Z,3.10
2022-07-25T03:21:12.095Z,2.97
2022-07-25T03:26:25.379Z,2.80
2022-07-25T03:31:32.812Z,3.30
2022-07-25T03:36:54.986Z,2.85
2022-07-25T03:42:09.963Z,3.33
2022-07-25T03:47:20.180Z,3.50
2022-07-25T03:52:27.512Z,3.53
2022-07-25T03:57:40.979Z,3.47
2022-07-25T04:02:58.822Z,3.60
2022-07-25T04:08:03.161Z,3.60
2022-07-25T04:13:12.604Z,3.35
2022-07-25T04:18:25.195Z,3.30
2022-07-25T04:23:38.547Z,3.70
2022-07-25T04:28:55.819Z,3.70
2022-07-25T04:34:02.642Z,3.92
2022-07-25T04:39:37.680Z,3.50
2022-07-25T04:44:47.085Z,3.38
2022-07-25T04:49:51.520Z,3.83
2022-07-25T04:54:56.651Z,3.70
2022-07-25T05:00:08.113Z,3.92
2022-07-25T05:05:24.460Z,3.83
2022-07-25T05:10:48.943Z,4.72
2022-07-25T05:16:04.380Z,4.53
2022-07-25T05:21:29.895Z,4.53
2022-07-25T05:26:43.173Z,4.63
2022-07-25T05:31:50.447Z,4.30
2022-07-25T05:37:04.546Z,4.45
2022-07-25T05:42:10.427Z,4.75
2022-07-25T05:47:22.218Z,4.22
2022-07-25T05:52:29.597Z,4.03
2022-07-25T05:57:34.894Z,4.00
2022-07-25T06:03:06.488Z,3.58
2022-07-25T06:08:15.793Z,3.92
2022-07-25T06:13:25.300Z,3.80
2022-07-25T06:18:34.980Z,4.05
2022-07-25T06:23:43.850Z,3.65
2022-07-25T06:29:01.909Z,3.50
2022-07-25T06:34:25.778Z,3.58
2022-07-25T06:39:46.110Z,3.72
2022-07-25T06:44:56.127Z,3.47
2022-07-25T06:50:04.687Z,3.50
2022-07-25T06:55:23.365Z,3.70
2022-07-25T07:00:43.003Z,3.83
2022-07-25T07:06:13.665Z,3.70
2022-07-25T07:11:27.849Z,3.85
2022-07-25T07:22:04.483Z,3.95
2022-07-25T07:27:15.387Z,4.32
2022-07-25T07:32:28.636Z,3.88
2022-07-25T07:37:44.587Z,4.10
2022-07-25T07:43:03.727Z,4.05
2022-07-25T07:48:10.885Z,4.32
2022-07-25T07:53:23.790Z,3.78
2022-07-25T07:58:35.875Z,3.90
2022-07-25T08:03:46.463Z,4.05
2022-07-25T08:08:57.716Z,3.40
2022-07-25T08:14:03.156Z,3.53
2022-07-25T08:19:07.745Z,4.35
2022-07-25T08:24:21.730Z,3.90
2022-07-25T08:29:30.255Z,3.63
2022-07-25T08:34:39.129Z,3.83
2022-07-25T08:39:48.431Z,3.85
2022-07-25T08:45:02.029Z,3.53
2022-07-25T08:50:13.128Z,4.43
2022-07-25T08:55:22.291Z,4.03
2022-07-25T09:00:40.556Z,4.18
2022-07-25T09:05:51.230Z,4.15
2022-07-25T09:10:58.239Z,3.90
2022-07-25T09:16:04.245Z,3.70
2022-07-25T09:21:25.123Z,3.75
2022-07-25T09:26:47.533Z,3.90
2022-07-25T09:31:55.187Z,3.65
2022-07-25T09:37:11.621Z,3.90
2022-07-25T09:42:24.379Z,3.72
2022-07-25T09:47:32.798Z,3.67
2022-07-25T09:52:37.338Z,3.95
2022-07-25T09:57:58.330Z,4.55
2022-07-25T10:03:44.691Z,3.90
2022-07-25T10:09:04.801Z,3.67
2022-07-25T10:14:21.109Z,3.78
2022-07-25T10:20:01.314Z,4.05
2022-07-25T10:25:16.072Z,3.40
2022-07-25T10:30:31.663Z,3.53
2022-07-25T10:35:44.574Z,3.75
2022-07-25T10:41:05.735Z,3.78
2022-07-25T10:46:33.605Z,3.85
2022-07-25T10:51:42.076Z,3.40
2022-07-25T10:57:00.784Z,3.53
2022-07-25T11:02:24.438Z,3.30
2022-07-25T11:07:36.426Z,3.78
2022-07-25T11:12:47.030Z,3.53
2022-07-25T11:18:01.001Z,3.50
2022-07-25T11:23:09.002Z,3.53
2022-07-25T11:28:16.645Z,3.72
2022-07-25T11:33:27.624Z,3.40
2022-07-25T11:38:37.135Z,4.00
2022-07-25T11:43:51.223Z,3.42
2022-07-25T11:49:15.854Z,3.80
2022-07-25T11:54:20.893Z,3.38
2022-07-25T11:59:28.564Z,3.08
2022-07-25T12:04:45.611Z,3.85
2022-07-25T12:10:00.267Z,3.25
2022-07-25T12:15:10.320Z,3.75
2022-07-25T12:20:30.886Z,3.58
2022-07-25T12:25:43.035Z,3.72
2022-07-25T12:30:58.664Z,3.80
2022-07-25T12:36:17.812Z,3.67
2022-07-25T12:41:27.452Z,3.90
2022-07-25T12:46:35.820Z,3.83
2022-07-25T12:51:54.668Z,4.13
2022-07-25T12:57:04.628Z,3.65
2022-07-25T13:02:15.308Z,4.18
2022-07-25T13:07:30.716Z,3.35
2022-07-25T13:12:37.257Z,3.90
2022-07-25T13:17:53.159Z,3.47
2022-07-25T13:23:16.339Z,3.17
2022-07-25T13:28:26.702Z,3.47
2022-07-25T13:33:33.259Z,3.92
2022-07-25T13:38:44.584Z,2.92
2022-07-25T13:43:51.213Z,3.40
2022-07-25T13:49:02.220Z,3.45
2022-07-25T13:54:18.779Z,3.00
2022-07-25T13:59:28.017Z,3.22
2022-07-25T14:04:52.674Z,3.17
2022-07-25T14:10:08.901Z,3.45
2022-07-25T14:15:26.348Z,3.20
2022-07-25T14:20:43.303Z,3.13
2022-07-25T14:26:00.515Z,3.38
2022-07-25T14:31:20.215Z,3.33
2022-07-25T14:36:44.873Z,3.15
2022-07-25T14:42:05.847Z,3.42
2022-07-25T14:47:27.403Z,3.28
2022-07-25T14:52:46.494Z,3.53
2022-07-25T14:58:29.927Z,3.45
2022-07-25T15:03:51.379Z,3.47
2022-07-25T15:14:56.186Z,3.38
2022-07-25T15:20:15.180Z,3.70
2022-07-25T15:26:00.123Z,3.80
2022-07-25T15:31:15.674Z,3.50
2022-07-25T15:36:29.771Z,3.50
2022-07-25T15:41:35.352Z,4.32
2022-07-25T15:46:52.862Z,3.50
2022-07-25T15:52:19.478Z,3.95
2022-07-25T15:57:49.216Z,3.95
2022-07-25T16:03:03.541Z,3.83
2022-07-25T16:08:11.921Z,4.60
2022-07-25T16:13:18.816Z,4.30
2022-07-25T16:18:28.765Z,4.10
2022-07-25T16:23:41.572Z,3.75
2022-07-25T16:28:49.707Z,9.70
2022-07-25T16:33:59.656Z,9.98
2022-07-25T16:39:05.991Z,7.40
2022-07-25T16:44:11.649Z,7.25
2022-07-25T16:49:27.687Z,6.65
2022-07-25T16:54:40.172Z,6.60
2022-07-25T16:59:48.209Z,6.40
2022-07-25T17:04:54.990Z,5.95
2022-07-25T17:10:02.906Z,6.35
2022-07-25T17:15:10.670Z,5.90
2022-07-25T17:20:29.569Z,6.32
2022-07-25T17:25:35.629Z,6.18
2022-07-25T17:30:42.701Z,6.40
2022-07-25T17:35:55.497Z,6.75
2022-07-25T17:41:02.901Z,6.63
2022-07-25T17:46:20.550Z,6.97
2022-07-25T17:51:32.768Z,7.10
2022-07-25T17:56:46.715Z,7.18
2022-07-25T18:01:54.930Z,7.15
2022-07-25T18:07:06.540Z,6.20
2022-07-25T18:12:13.754Z,6.30
2022-07-25T18:17:19.998Z,6.32
2022-07-25T18:22:39.920Z,7.03
2022-07-25T18:27:54.370Z,6.10
2022-07-25T18:33:03.405Z,6.95
2022-07-25T18:38:12.279Z,7.30
2022-07-25T18:43:42.953Z,6.88
2022-07-25T18:48:58.813Z,7.22
2022-07-25T18:54:09.435Z,6.50
2022-07-25T18:59:20.518Z,7.28
2022-07-25T19:04:32.333Z,7.43
2022-07-25T19:09:45.743Z,6.32
2022-07-25T19:14:50.797Z,6.35
2022-07-25T19:19:58.055Z,6.35
2022-07-25T19:25:09.624Z,7.20
2022-07-25T19:30:21.226Z,7.30
2022-07-25T19:35:36.930Z,7.88
2022-07-25T19:40:56.460Z,7.68
2022-07-25T19:46:07.999Z,7.78
2022-07-25T19:51:34.924Z,6.75
2022-07-25T19:56:49.121Z,7.47
2022-07-25T20:01:53.576Z,7.18
2022-07-25T20:06:58.004Z,7.25
2022-07-25T20:12:03.973Z,7.05
2022-07-25T20:17:12.687Z,8.02
2022-07-25T20:22:21.549Z,6.95
2022-07-25T20:27:30.172Z,7.03
2022-07-25T20:32:37.935Z,7.70
2022-07-25T20:37:56.285Z,8.18
2022-07-25T20:43:15.647Z,7.63
2022-07-25T20:48:24.422Z,8.63
2022-07-25T20:53:37.651Z,7.72
2022-07-25T20:58:48.226Z,7.10
2022-07-25T21:04:07.030Z,7.90
2022-07-25T21:14:37.975Z,6.85
2022-07-25T21:19:42.999Z,6.70
2022-07-25T21:24:59.930Z,7.18
2022-07-25T21:30:11.189Z,6.72
2022-07-25T21:35:56.602Z,6.05
2022-07-25T21:41:20.263Z,5.80
2022-07-25T21:46:33.048Z,6.50
2022-07-25T21:51:41.236Z,6.30
2022-07-25T21:56:54.704Z,6.13
2022-07-25T22:02:06.921Z,5.28
2022-07-25T22:07:12.933Z,5.57
2022-07-25T22:12:28.865Z,5.35
2022-07-25T22:18:09.445Z,5.20
2022-07-25T22:23:33.611Z,5.70
2022-07-25T22:28:45.600Z,5.68
2022-07-25T22:33:56.518Z,6.00
2022-07-25T22:39:02.085Z,5.85
2022-07-25T22:44:12.412Z,5.68
2022-07-25T22:49:17.886Z,5.35
2022-07-25T22:54:35.681Z,5.10
2022-07-25T22:59:44.961Z,5.38
2022-07-25T23:05:02.731Z,4.95
2022-07-25T23:10:11.215Z,4.20
2022-07-25T23:15:17.524Z,4.57
2022-07-25T23:25:58.981Z,5.05
2022-07-25T23:31:07.781Z,5.20
2022-07-25T23:36:17.260Z,5.28
2022-07-25T23:41:32.288Z,5.40
2022-07-25T23:46:38.741Z,5.63
2022-07-25T23:51:51.368Z,5.18
2022-07-25T23:56:59.504Z,5.53
